sensor_id;sensor_type;location;lat;lon;timestamp;P1;durP1;ratioP1;P2;durP2;ratioP2
3845;SDS011;1938;50.812;7.738;2022-08-21T00:01:10;12.93;;;6.00;;
3845;SDS011;1938;50.812;7.738;2022-08-21T00:03:46;17.53;;;7.00;;
3845;SDS011;1938;50.812;7.738;2022-08-21T00:06:12;17.73;;;8.53;;
3845;SDS011;1938;50.812;7.738;2022-08-21T00:08:38;13.50;;;7.63;;
3845;SDS011;1938;50.812;7.738;2022-08-21T00:11:04;15.90;;;6.90;;
3845;SDS011;1938;50.812;7.738;2022-08-21T00:13:30;18.40;;;6.70;;
3845;SDS011;1938;50.812;7.738;2022-08-21T00:15:56;15.70;;;7.23;;
3845;SDS011;1938;50.812;7.738;2022-08-21T00:18:23;23.17;;;7.97;;
3845;SDS011;1938;50.812;7.738;2022-08-21T00:20:49;19.87;;;7.63;;
3845;SDS011;1938;50.812;7.738;2022-08-21T00:23:15;11.07;;;7.43;;
3845;SDS011;1938;50.812;7.738;2022-08-21T00:25:42;17.07;;;7.90;;
3845;SDS011;1938;50.812;7.738;2022-08-21T00:28:08;15.57;;;8.00;;
3845;SDS011;1938;50.812;7.738;2022-08-21T00:30:35;13.87;;;7.30;;
3845;SDS011;1938;50.812;7.738;2022-08-21T00:33:01;20.50;;;9.90;;
3845;SDS011;1938;50.812;7.738;2022-08-21T00:35:29;14.07;;;7.60;;
3845;SDS011;1938;50.812;7.738;2022-08-21T00:37:58;11.93;;;6.77;;
3845;SDS011;1938;50.812;7.738;2022-08-21T00:40:27;21.80;;;7.30;;
3845;SDS011;1938;50.812;7.738;2022-08-21T00:42:58;15.43;;;7.10;;
3845;SDS011;1938;50.812;7.738;2022-08-21T00:45:25;15.67;;;7.40;;
3845;SDS011;1938;50.812;7.738;2022-08-21T00:47:52;15.13;;;8.27;;
3845;SDS011;1938;50.812;7.738;2022-08-21T00:50:19;18.90;;;7.57;;
3845;SDS011;1938;50.812;7.738;2022-08-21T00:52:46;19.00;;;7.50;;
3845;SDS011;1938;50.812;7.738;2022-08-21T00:55:12;19.33;;;8.10;;
3845;SDS011;1938;50.812;7.738;2022-08-21T00:57:47;22.20;;;8.30;;
3845;SDS011;1938;50.812;7.738;2022-08-21T01:00:18;21.60;;;7.93;;
3845;SDS011;1938;50.812;7.738;2022-08-21T01:02:46;19.37;;;8.30;;
3845;SDS011;1938;50.812;7.738;2022-08-21T01:05:12;15.73;;;8.97;;
3845;SDS011;1938;50.812;7.738;2022-08-21T01:07:38;18.20;;;9.90;;
3845;SDS011;1938;50.812;7.738;2022-08-21T01:10:06;18.57;;;9.00;;
3845;SDS011;1938;50.812;7.738;2022-08-21T01:12:33;23.30;;;7.90;;
3845;SDS011;1938;50.812;7.738;2022-08-21T01:15:00;17.10;;;9.50;;
3845;SDS011;1938;50.812;7.738;2022-08-21T01:17:26;18.57;;;9.70;;
3845;SDS011;1938;50.812;7.738;2022-08-21T01:19:52;20.10;;;8.27;;
3845;SDS011;1938;50.812;7.738;2022-08-21T01:22:22;19.73;;;8.27;;
3845;SDS011;1938;50.812;7.738;2022-08-21T01:24:48;14.70;;;8.53;;
3845;SDS011;1938;50.812;7.738;2022-08-21T01:27:15;14.90;;;8.60;;
3845;SDS011;1938;50.812;7.738;2022-08-21T01:29:46;14.57;;;8.10;;
3845;SDS011;1938;50.812;7.738;2022-08-21T01:32:21;12.37;;;7.93;;
3845;SDS011;1938;50.812;7.738;2022-08-21T01:34:47;18.53;;;8.03;;
3845;SDS011;1938;50.812;7.738;2022-08-21T01:37:16;21.80;;;9.93;;
3845;SDS011;1938;50.812;7.738;2022-08-21T01:39:42;18.93;;;7.60;;
3845;SDS011;1938;50.812;7.738;2022-08-21T01:42:08;16.93;;;9.67;;
3845;SDS011;1938;50.812;7.738;2022-08-21T01:44:34;15.87;;;8.60;;
3845;SDS011;1938;50.812;7.738;2022-08-21T01:47:01;18.83;;;8.53;;
3845;SDS011;1938;50.812;7.738;2022-08-21T01:49:29;12.07;;;7.10;;
3845;SDS011;1938;50.812;7.738;2022-08-21T01:51:55;16.17;;;8.20;;
3845;SDS011;1938;50.812;7.738;2022-08-21T01:54:20;16.40;;;7.33;;
3845;SDS011;1938;50.812;7.738;2022-08-21T01:56:47;16.60;;;7.53;;
3845;SDS011;1938;50.812;7.738;2022-08-21T01:59:15;20.00;;;7.90;;
3845;SDS011;1938;50.812;7.738;2022-08-21T02:01:40;12.70;;;7.87;;
3845;SDS011;1938;50.812;7.738;2022-08-21T02:04:06;19.13;;;7.83;;
3845;SDS011;1938;50.812;7.738;2022-08-21T02:06:33;17.40;;;8.10;;
3845;SDS011;1938;50.812;7.738;2022-08-21T02:09:00;11.90;;;7.37;;
3845;SDS011;1938;50.812;7.738;2022-08-21T02:11:26;22.50;;;8.10;;
3845;SDS011;1938;50.812;7.738;2022-08-21T02:13:52;15.37;;;8.00;;
3845;SDS011;1938;50.812;7.738;2022-08-21T02:16:17;13.37;;;7.67;;
3845;SDS011;1938;50.812;7.738;2022-08-21T02:18:43;15.03;;;7.50;;
3845;SDS011;1938;50.812;7.738;2022-08-21T02:21:09;16.27;;;7.63;;
3845;SDS011;1938;50.812;7.738;2022-08-21T02:23:34;18.73;;;8.97;;
3845;SDS011;1938;50.812;7.738;2022-08-21T02:26:01;16.00;;;8.53;;
3845;SDS011;1938;50.812;7.738;2022-08-21T02:28:29;15.13;;;9.50;;
3845;SDS011;1938;50.812;7.738;2022-08-21T02:30:55;28.33;;;10.97;;
3845;SDS011;1938;50.812;7.738;2022-08-21T02:33:21;13.83;;;8.90;;
3845;SDS011;1938;50.812;7.738;2022-08-21T02:35:48;16.40;;;9.10;;
3845;SDS011;1938;50.812;7.738;2022-08-21T02:38:17;14.77;;;8.20;;
3845;SDS011;1938;50.812;7.738;2022-08-21T02:40:46;15.03;;;8.07;;
3845;SDS011;1938;50.812;7.738;2022-08-21T02:43:14;16.63;;;7.87;;
3845;SDS011;1938;50.812;7.738;2022-08-21T02:45:41;19.03;;;10.20;;
3845;SDS011;1938;50.812;7.738;2022-08-21T02:48:09;15.30;;;7.87;;
3845;SDS011;1938;50.812;7.738;2022-08-21T02:50:39;13.77;;;8.13;;
3845;SDS011;1938;50.812;7.738;2022-08-21T02:53:08;17.63;;;8.90;;
3845;SDS011;1938;50.812;7.738;2022-08-21T02:55:36;18.90;;;9.17;;
3845;SDS011;1938;50.812;7.738;2022-08-21T02:58:03;16.63;;;7.37;;
3845;SDS011;1938;50.812;7.738;2022-08-21T03:00:31;24.17;;;9.57;;
3845;SDS011;1938;50.812;7.738;2022-08-21T03:02:58;16.80;;;8.60;;
3845;SDS011;1938;50.812;7.738;2022-08-21T03:05:24;16.10;;;8.37;;
3845;SDS011;1938;50.812;7.738;2022-08-21T03:07:51;16.27;;;8.50;;
3845;SDS011;1938;50.812;7.738;2022-08-21T03:10:21;17.33;;;9.30;;
3845;SDS011;1938;50.812;7.738;2022-08-21T03:12:47;15.50;;;8.77;;
3845;SDS011;1938;50.812;7.738;2022-08-21T03:15:18;20.27;;;9.20;;
3845;SDS011;1938;50.812;7.738;2022-08-21T03:17:47;15.10;;;9.23;;
3845;SDS011;1938;50.812;7.738;2022-08-21T03:20:14;22.07;;;10.37;;
3845;SDS011;1938;50.812;7.738;2022-08-21T03:22:41;18.10;;;9.53;;
3845;SDS011;1938;50.812;7.738;2022-08-21T03:25:07;17.20;;;9.00;;
3845;SDS011;1938;50.812;7.738;2022-08-21T03:27:33;18.67;;;8.33;;
3845;SDS011;1938;50.812;7.738;2022-08-21T03:29:59;17.93;;;10.23;;
3845;SDS011;1938;50.812;7.738;2022-08-21T03:32:26;23.63;;;9.10;;
3845;SDS011;1938;50.812;7.738;2022-08-21T03:34:51;16.70;;;9.17;;
3845;SDS011;1938;50.812;7.738;2022-08-21T03:37:17;21.07;;;9.73;;
3845;SDS011;1938;50.812;7.738;2022-08-21T03:39:43;22.27;;;10.30;;
3845;SDS011;1938;50.812;7.738;2022-08-21T03:42:09;17.23;;;10.40;;
3845;SDS011;1938;50.812;7.738;2022-08-21T03:44:35;20.17;;;10.10;;
3845;SDS011;1938;50.812;7.738;2022-08-21T03:47:01;22.33;;;10.67;;
3845;SDS011;1938;50.812;7.738;2022-08-21T03:49:27;16.20;;;10.43;;
3845;SDS011;1938;50.812;7.738;2022-08-21T03:51:53;18.90;;;10.77;;
3845;SDS011;1938;50.812;7.738;2022-08-21T03:54:18;24.27;;;11.90;;
3845;SDS011;1938;50.812;7.738;2022-08-21T03:56:44;23.73;;;11.70;;
3845;SDS011;1938;50.812;7.738;2022-08-21T03:59:11;22.73;;;11.70;;
3845;SDS011;1938;50.812;7.738;2022-08-21T04:01:37;29.07;;;12.50;;
3845;SDS011;1938;50.812;7.738;2022-08-21T04:04:03;29.03;;;13.50;;
3845;SDS011;1938;50.812;7.738;2022-08-21T04:06:30;27.50;;;12.70;;
3845;SDS011;1938;50.812;7.738;2022-08-21T04:08:56;23.30;;;10.40;;
3845;SDS011;1938;50.812;7.738;2022-08-21T04:11:21;19.70;;;12.47;;
3845;SDS011;1938;50.812;7.738;2022-08-21T04:13:47;19.53;;;11.00;;
3845;SDS011;1938;50.812;7.738;2022-08-21T04:16:13;20.83;;;10.83;;
3845;SDS011;1938;50.812;7.738;2022-08-21T04:18:39;19.97;;;11.40;;
3845;SDS011;1938;50.812;7.738;2022-08-21T04:21:04;26.83;;;11.70;;
3845;SDS011;1938;50.812;7.738;2022-08-21T04:23:31;19.83;;;10.50;;
3845;SDS011;1938;50.812;7.738;2022-08-21T04:25:57;20.80;;;10.63;;
3845;SDS011;1938;50.812;7.738;2022-08-21T04:28:23;28.63;;;11.53;;
3845;SDS011;1938;50.812;7.738;2022-08-21T04:30:50;24.80;;;12.13;;
3845;SDS011;1938;50.812;7.738;2022-08-21T04:33:16;24.40;;;11.60;;
3845;SDS011;1938;50.812;7.738;2022-08-21T04:35:42;32.97;;;13.50;;
3845;SDS011;1938;50.812;7.738;2022-08-21T04:38:08;26.43;;;12.37;;
3845;SDS011;1938;50.812;7.738;2022-08-21T04:40:34;31.83;;;15.83;;
3845;SDS011;1938;50.812;7.738;2022-08-21T04:43:04;33.83;;;14.70;;
3845;SDS011;1938;50.812;7.738;2022-08-21T04:45:37;21.93;;;12.77;;
3845;SDS011;1938;50.812;7.738;2022-08-21T04:48:08;25.07;;;13.07;;
3845;SDS011;1938;50.812;7.738;2022-08-21T04:53:07;25.57;;;14.70;;
3845;SDS011;1938;50.812;7.738;2022-08-21T04:55:36;23.37;;;12.40;;
3845;SDS011;1938;50.812;7.738;2022-08-21T04:58:04;25.33;;;13.70;;
3845;SDS011;1938;50.812;7.738;2022-08-21T05:00:34;24.70;;;13.40;;
3845;SDS011;1938;50.812;7.738;2022-08-21T05:02:59;20.57;;;11.70;;
3845;SDS011;1938;50.812;7.738;2022-08-21T05:05:28;20.97;;;12.87;;
3845;SDS011;1938;50.812;7.738;2022-08-21T05:07:55;24.17;;;12.90;;
3845;SDS011;1938;50.812;7.738;2022-08-21T05:10:24;28.80;;;11.87;;
3845;SDS011;1938;50.812;7.738;2022-08-21T05:12:50;23.83;;;12.07;;
3845;SDS011;1938;50.812;7.738;2022-08-21T05:15:15;20.50;;;12.00;;
3845;SDS011;1938;50.812;7.738;2022-08-21T05:17:42;26.90;;;11.93;;
3845;SDS011;1938;50.812;7.738;2022-08-21T05:20:11;17.10;;;10.37;;
3845;SDS011;1938;50.812;7.738;2022-08-21T05:22:37;16.07;;;10.13;;
3845;SDS011;1938;50.812;7.738;2022-08-21T05:25:04;16.70;;;8.80;;
3845;SDS011;1938;50.812;7.738;2022-08-21T05:27:32;12.30;;;7.67;;
3845;SDS011;1938;50.812;7.738;2022-08-21T05:29:58;10.83;;;6.93;;
3845;SDS011;1938;50.812;7.738;2022-08-21T05:32:23;13.47;;;7.13;;
3845;SDS011;1938;50.812;7.738;2022-08-21T05:34:49;17.13;;;6.90;;
3845;SDS011;1938;50.812;7.738;2022-08-21T05:37:15;13.20;;;6.67;;
3845;SDS011;1938;50.812;7.738;2022-08-21T05:39:41;13.87;;;6.13;;
3845;SDS011;1938;50.812;7.738;2022-08-21T05:42:07;10.57;;;6.20;;
3845;SDS011;1938;50.812;7.738;2022-08-21T05:44:32;11.70;;;6.70;;
3845;SDS011;1938;50.812;7.738;2022-08-21T05:47:02;9.20;;;5.80;;
3845;SDS011;1938;50.812;7.738;2022-08-21T05:49:33;12.47;;;7.23;;
3845;SDS011;1938;50.812;7.738;2022-08-21T05:51:59;11.50;;;6.67;;
3845;SDS011;1938;50.812;7.738;2022-08-21T05:54:25;7.97;;;5.67;;
3845;SDS011;1938;50.812;7.738;2022-08-21T05:56:51;12.40;;;6.50;;
3845;SDS011;1938;50.812;7.738;2022-08-21T05:59:17;9.80;;;6.00;;
3845;SDS011;1938;50.812;7.738;2022-08-21T06:01:43;11.00;;;7.00;;
3845;SDS011;1938;50.812;7.738;2022-08-21T06:04:10;8.23;;;5.63;;
3845;SDS011;1938;50.812;7.738;2022-08-21T06:06:36;8.70;;;5.60;;
3845;SDS011;1938;50.812;7.738;2022-08-21T06:09:01;16.97;;;7.80;;
3845;SDS011;1938;50.812;7.738;2022-08-21T06:11:27;11.77;;;5.70;;
3845;SDS011;1938;50.812;7.738;2022-08-21T06:13:53;10.47;;;6.47;;
3845;SDS011;1938;50.812;7.738;2022-08-21T06:16:19;8.67;;;5.90;;
3845;SDS011;1938;50.812;7.738;2022-08-21T06:18:44;8.40;;;5.87;;
3845;SDS011;1938;50.812;7.738;2022-08-21T06:21:10;10.77;;;6.63;;
3845;SDS011;1938;50.812;7.738;2022-08-21T06:23:36;13.60;;;6.53;;
3845;SDS011;1938;50.812;7.738;2022-08-21T06:26:02;9.70;;;6.03;;
3845;SDS011;1938;50.812;7.738;2022-08-21T06:28:29;8.93;;;5.07;;
3845;SDS011;1938;50.812;7.738;2022-08-21T06:30:56;9.03;;;5.77;;
3845;SDS011;1938;50.812;7.738;2022-08-21T06:33:21;12.50;;;7.00;;
3845;SDS011;1938;50.812;7.738;2022-08-21T06:35:47;10.27;;;5.50;;
3845;SDS011;1938;50.812;7.738;2022-08-21T06:38:13;10.10;;;5.53;;
3845;SDS011;1938;50.812;7.738;2022-08-21T06:40:39;10.80;;;5.57;;
3845;SDS011;1938;50.812;7.738;2022-08-21T06:43:07;9.93;;;5.53;;
3845;SDS011;1938;50.812;7.738;2022-08-21T06:45:34;14.47;;;5.77;;
3845;SDS011;1938;50.812;7.738;2022-08-21T06:47:59;6.50;;;4.97;;
3845;SDS011;1938;50.812;7.738;2022-08-21T06:50:25;10.03;;;5.50;;
3845;SDS011;1938;50.812;7.738;2022-08-21T06:52:57;9.30;;;5.33;;
3845;SDS011;1938;50.812;7.738;2022-08-21T06:55:24;7.53;;;4.83;;
3845;SDS011;1938;50.812;7.738;2022-08-21T06:57:50;8.27;;;4.90;;
3845;SDS011;1938;50.812;7.738;2022-08-21T07:00:15;8.00;;;4.97;;
3845;SDS011;1938;50.812;7.738;2022-08-21T07:02:41;7.30;;;5.20;;
3845;SDS011;1938;50.812;7.738;2022-08-21T07:05:06;10.90;;;5.30;;
3845;SDS011;1938;50.812;7.738;2022-08-21T07:07:32;7.30;;;4.17;;
3845;SDS011;1938;50.812;7.738;2022-08-21T07:09:58;6.50;;;4.97;;
3845;SDS011;1938;50.812;7.738;2022-08-21T07:12:23;9.07;;;5.77;;
3845;SDS011;1938;50.812;7.738;2022-08-21T07:14:50;7.63;;;5.47;;
3845;SDS011;1938;50.812;7.738;2022-08-21T07:17:17;6.50;;;4.80;;
3845;SDS011;1938;50.812;7.738;2022-08-21T07:19:42;6.20;;;4.63;;
3845;SDS011;1938;50.812;7.738;2022-08-21T07:22:08;10.60;;;4.70;;
3845;SDS011;1938;50.812;7.738;2022-08-21T07:24:34;7.00;;;4.80;;
3845;SDS011;1938;50.812;7.738;2022-08-21T07:26:59;8.40;;;4.60;;
3845;SDS011;1938;50.812;7.738;2022-08-21T07:29:26;8.00;;;4.60;;
3845;SDS011;1938;50.812;7.738;2022-08-21T07:31:51;9.20;;;5.63;;
3845;SDS011;1938;50.812;7.738;2022-08-21T07:34:17;9.20;;;5.53;;
3845;SDS011;1938;50.812;7.738;2022-08-21T07:36:42;12.13;;;5.57;;
3845;SDS011;1938;50.812;7.738;2022-08-21T07:39:08;9.50;;;5.50;;
3845;SDS011;1938;50.812;7.738;2022-08-21T07:41:33;12.50;;;5.77;;
3845;SDS011;1938;50.812;7.738;2022-08-21T07:44:00;7.20;;;4.83;;
3845;SDS011;1938;50.812;7.738;2022-08-21T07:46:26;6.70;;;4.97;;
3845;SDS011;1938;50.812;7.738;2022-08-21T07:48:52;10.50;;;4.87;;
3845;SDS011;1938;50.812;7.738;2022-08-21T07:51:18;9.50;;;4.97;;
3845;SDS011;1938;50.812;7.738;2022-08-21T07:53:52;6.73;;;4.30;;
3845;SDS011;1938;50.812;7.738;2022-08-21T07:56:20;9.40;;;4.33;;
3845;SDS011;1938;50.812;7.738;2022-08-21T07:58:47;7.50;;;4.03;;
3845;SDS011;1938;50.812;7.738;2022-08-21T08:01:13;7.33;;;4.80;;
3845;SDS011;1938;50.812;7.738;2022-08-21T08:03:39;7.57;;;4.63;;
3845;SDS011;1938;50.812;7.738;2022-08-21T08:06:06;15.97;;;4.70;;
3845;SDS011;1938;50.812;7.738;2022-08-21T08:08:33;6.87;;;4.97;;
3845;SDS011;1938;50.812;7.738;2022-08-21T08:10:59;8.80;;;5.10;;
3845;SDS011;1938;50.812;7.738;2022-08-21T08:13:26;8.17;;;5.30;;
3845;SDS011;1938;50.812;7.738;2022-08-21T08:15:52;11.87;;;5.57;;
3845;SDS011;1938;50.812;7.738;2022-08-21T08:18:18;12.63;;;5.80;;
3845;SDS011;1938;50.812;7.738;2022-08-21T08:20:43;9.17;;;4.70;;
3845;SDS011;1938;50.812;7.738;2022-08-21T08:23:10;6.07;;;3.53;;
3845;SDS011;1938;50.812;7.738;2022-08-21T08:25:39;9.20;;;4.47;;
3845;SDS011;1938;50.812;7.738;2022-08-21T08:28:05;8.07;;;4.60;;
3845;SDS011;1938;50.812;7.738;2022-08-21T08:30:31;8.60;;;3.80;;
3845;SDS011;1938;50.812;7.738;2022-08-21T08:32:57;9.60;;;4.20;;
3845;SDS011;1938;50.812;7.738;2022-08-21T08:35:24;6.43;;;4.20;;
3845;SDS011;1938;50.812;7.738;2022-08-21T08:37:50;9.23;;;3.57;;
3845;SDS011;1938;50.812;7.738;2022-08-21T08:40:21;9.83;;;3.47;;
3845;SDS011;1938;50.812;7.738;2022-08-21T08:42:54;8.77;;;4.00;;
3845;SDS011;1938;50.812;7.738;2022-08-21T08:45:20;7.23;;;3.60;;
3845;SDS011;1938;50.812;7.738;2022-08-21T08:47:52;11.20;;;4.23;;
3845;SDS011;1938;50.812;7.738;2022-08-21T08:50:35;5.40;;;3.80;;
3845;SDS011;1938;50.812;7.738;2022-08-21T08:53:06;5.67;;;3.30;;
3845;SDS011;1938;50.812;7.738;2022-08-21T08:55:40;9.93;;;3.60;;
3845;SDS011;1938;50.812;7.738;2022-08-21T08:58:16;9.63;;;5.17;;
3845;SDS011;1938;50.812;7.738;2022-08-21T09:00:47;12.50;;;4.57;;
3845;SDS011;1938;50.812;7.738;2022-08-21T09:03:16;12.40;;;4.17;;
3845;SDS011;1938;50.812;7.738;2022-08-21T09:08:20;8.10;;;3.60;;
3845;SDS011;1938;50.812;7.738;2022-08-21T09:14:12;5.67;;;2.67;;
3845;SDS011;1938;50.812;7.738;2022-08-21T09:16:55;6.97;;;2.67;;
3845;SDS011;1938;50.812;7.738;2022-08-21T09:22:28;6.70;;;2.27;;
3845;SDS011;1938;50.812;7.738;2022-08-21T09:27:51;8.50;;;2.23;;
3845;SDS011;1938;50.812;7.738;2022-08-21T09:30:18;5.20;;;2.80;;
3845;SDS011;1938;50.812;7.738;2022-08-21T09:32:48;8.97;;;3.07;;
3845;SDS011;1938;50.812;7.738;2022-08-21T09:35:15;7.80;;;2.90;;
3845;SDS011;1938;50.812;7.738;2022-08-21T09:40:25;8.13;;;2.40;;
3845;SDS011;1938;50.812;7.738;2022-08-21T09:43:02;8.80;;;2.27;;
3845;SDS011;1938;50.812;7.738;2022-08-21T09:45:48;8.40;;;2.23;;
3845;SDS011;1938;50.812;7.738;2022-08-21T09:48:25;7.43;;;2.17;;
3845;SDS011;1938;50.812;7.738;2022-08-21T09:50:52;7.10;;;2.57;;
3845;SDS011;1938;50.812;7.738;2022-08-21T09:55:51;5.60;;;1.90;;
3845;SDS011;1938;50.812;7.738;2022-08-21T09:58:41;7.70;;;2.47;;
3845;SDS011;1938;50.812;7.738;2022-08-21T10:01:14;9.20;;;2.50;;
3845;SDS011;1938;50.812;7.738;2022-08-21T10:03:41;12.03;;;2.80;;
3845;SDS011;1938;50.812;7.738;2022-08-21T10:06:08;5.90;;;1.90;;
3845;SDS011;1938;50.812;7.738;2022-08-21T10:08:36;9.83;;;2.83;;
3845;SDS011;1938;50.812;7.738;2022-08-21T10:24:38;8.40;;;2.93;;
3845;SDS011;1938;50.812;7.738;2022-08-21T10:30:08;10.03;;;2.93;;
3845;SDS011;1938;50.812;7.738;2022-08-21T10:35:28;7.43;;;2.80;;
3845;SDS011;1938;50.812;7.738;2022-08-21T10:52:07;6.53;;;2.10;;
3845;SDS011;1938;50.812;7.738;2022-08-21T10:54:50;9.50;;;2.27;;
3845;SDS011;1938;50.812;7.738;2022-08-21T11:00:09;5.60;;;1.80;;
3845;SDS011;1938;50.812;7.738;2022-08-21T11:05:42;5.30;;;1.90;;
3845;SDS011;1938;50.812;7.738;2022-08-21T11:08:17;4.47;;;2.30;;
3845;SDS011;1938;50.812;7.738;2022-08-21T11:10:50;9.47;;;2.20;;
3845;SDS011;1938;50.812;7.738;2022-08-21T11:21:37;7.57;;;2.30;;
3845;SDS011;1938;50.812;7.738;2022-08-21T11:29:37;6.13;;;2.30;;
3845;SDS011;1938;50.812;7.738;2022-08-21T11:37:57;4.00;;;1.93;;
3845;SDS011;1938;50.812;7.738;2022-08-21T11:40:52;8.77;;;2.07;;
3845;SDS011;1938;50.812;7.738;2022-08-21T11:54:45;6.20;;;1.50;;
3845;SDS011;1938;50.812;7.738;2022-08-21T11:57:20;3.13;;;1.63;;
3845;SDS011;1938;50.812;7.738;2022-08-21T12:00:46;5.53;;;1.73;;
3845;SDS011;1938;50.812;7.738;2022-08-21T12:03:25;4.60;;;1.53;;
3845;SDS011;1938;50.812;7.738;2022-08-21T12:05:53;6.93;;;1.70;;
3845;SDS011;1938;50.812;7.738;2022-08-21T12:08:34;5.07;;;1.57;;
3845;SDS011;1938;50.812;7.738;2022-08-21T12:11:07;6.70;;;2.00;;
3845;SDS011;1938;50.812;7.738;2022-08-21T12:16:35;6.23;;;1.97;;
3845;SDS011;1938;50.812;7.738;2022-08-21T12:19:06;3.90;;;1.70;;
3845;SDS011;1938;50.812;7.738;2022-08-21T12:21:34;5.43;;;1.70;;
3845;SDS011;1938;50.812;7.738;2022-08-21T12:29:21;4.70;;;1.97;;
3845;SDS011;1938;50.812;7.738;2022-08-21T12:34:42;3.83;;;1.80;;
3845;SDS011;1938;50.812;7.738;2022-08-21T12:39:52;4.03;;;1.63;;
3845;SDS011;1938;50.812;7.738;2022-08-21T12:42:20;3.70;;;1.70;;
3845;SDS011;1938;50.812;7.738;2022-08-21T12:44:57;4.87;;;1.80;;
3845;SDS011;1938;50.812;7.738;2022-08-21T12:50:24;4.10;;;1.50;;
3845;SDS011;1938;50.812;7.738;2022-08-21T12:55:52;5.43;;;2.10;;
3845;SDS011;1938;50.812;7.738;2022-08-21T12:58:21;5.27;;;2.33;;
3845;SDS011;1938;50.812;7.738;2022-08-21T13:00:50;5.50;;;2.07;;
3845;SDS011;1938;50.812;7.738;2022-08-21T13:03:18;4.50;;;2.13;;
3845;SDS011;1938;50.812;7.738;2022-08-21T13:05:44;4.67;;;2.43;;
3845;SDS011;1938;50.812;7.738;2022-08-21T13:08:10;2.60;;;1.60;;
3845;SDS011;1938;50.812;7.738;2022-08-21T13:10:39;5.53;;;1.63;;
3845;SDS011;1938;50.812;7.738;2022-08-21T13:13:08;5.93;;;1.87;;
3845;SDS011;1938;50.812;7.738;2022-08-21T13:15:40;4.37;;;1.83;;
3845;SDS011;1938;50.812;7.738;2022-08-21T13:18:06;7.00;;;2.10;;
3845;SDS011;1938;50.812;7.738;2022-08-21T13:20:33;8.43;;;1.90;;
3845;SDS011;1938;50.812;7.738;2022-08-21T13:23:02;3.47;;;1.80;;
3845;SDS011;1938;50.812;7.738;2022-08-21T13:25:34;5.13;;;2.23;;
3845;SDS011;1938;50.812;7.738;2022-08-21T13:30:32;3.37;;;1.67;;
3845;SDS011;1938;50.812;7.738;2022-08-21T13:32:59;2.30;;;1.43;;
3845;SDS011;1938;50.812;7.738;2022-08-21T13:35:33;3.13;;;1.50;;
3845;SDS011;1938;50.812;7.738;2022-08-21T13:38:11;4.43;;;2.03;;
3845;SDS011;1938;50.812;7.738;2022-08-21T13:40:40;3.80;;;1.50;;
3845;SDS011;1938;50.812;7.738;2022-08-21T13:43:14;3.73;;;1.87;;
3845;SDS011;1938;50.812;7.738;2022-08-21T13:45:44;5.57;;;1.70;;
3845;SDS011;1938;50.812;7.738;2022-08-21T13:48:13;5.30;;;1.87;;
3845;SDS011;1938;50.812;7.738;2022-08-21T13:50:39;3.83;;;1.90;;
3845;SDS011;1938;50.812;7.738;2022-08-21T13:53:07;4.57;;;1.60;;
3845;SDS011;1938;50.812;7.738;2022-08-21T13:55:47;3.60;;;1.70;;
3845;SDS011;1938;50.812;7.738;2022-08-21T13:58:13;6.60;;;1.70;;
3845;SDS011;1938;50.812;7.738;2022-08-21T14:00:50;4.30;;;1.80;;
3845;SDS011;1938;50.812;7.738;2022-08-21T14:06:01;4.20;;;1.90;;
3845;SDS011;1938;50.812;7.738;2022-08-21T14:08:36;3.70;;;1.67;;
3845;SDS011;1938;50.812;7.738;2022-08-21T14:11:04;8.63;;;1.90;;
3845;SDS011;1938;50.812;7.738;2022-08-21T14:13:35;4.70;;;2.53;;
3845;SDS011;1938;50.812;7.738;2022-08-21T14:16:14;5.03;;;1.70;;
3845;SDS011;1938;50.812;7.738;2022-08-21T14:18:48;3.27;;;1.37;;
3845;SDS011;1938;50.812;7.738;2022-08-21T14:21:23;1.97;;;1.27;;
3845;SDS011;1938;50.812;7.738;2022-08-21T14:24:42;3.57;;;1.40;;
3845;SDS011;1938;50.812;7.738;2022-08-21T14:26:50;2.80;;;1.57;;
3845;SDS011;1938;50.812;7.738;2022-08-21T14:29:19;5.00;;;1.40;;
3845;SDS011;1938;50.812;7.738;2022-08-21T14:31:52;2.60;;;1.57;;
3845;SDS011;1938;50.812;7.738;2022-08-21T14:34:24;5.60;;;1.30;;
3845;SDS011;1938;50.812;7.738;2022-08-21T14:36:52;3.43;;;1.50;;
3845;SDS011;1938;50.812;7.738;2022-08-21T14:39:17;2.37;;;1.27;;
3845;SDS011;1938;50.812;7.738;2022-08-21T14:41:43;1.97;;;1.20;;
3845;SDS011;1938;50.812;7.738;2022-08-21T14:44:12;3.63;;;1.50;;
3845;SDS011;1938;50.812;7.738;2022-08-21T14:46:39;3.63;;;1.53;;
3845;SDS011;1938;50.812;7.738;2022-08-21T14:49:04;4.80;;;1.80;;
3845;SDS011;1938;50.812;7.738;2022-08-21T14:51:30;3.90;;;1.83;;
3845;SDS011;1938;50.812;7.738;2022-08-21T14:53:55;2.03;;;1.30;;
3845;SDS011;1938;50.812;7.738;2022-08-21T14:56:21;3.77;;;1.87;;
3845;SDS011;1938;50.812;7.738;2022-08-21T14:58:48;5.40;;;2.00;;
3845;SDS011;1938;50.812;7.738;2022-08-21T15:01:16;3.43;;;1.80;;
3845;SDS011;1938;50.812;7.738;2022-08-21T15:03:44;2.73;;;1.30;;
3845;SDS011;1938;50.812;7.738;2022-08-21T15:06:12;2.63;;;1.60;;
3845;SDS011;1938;50.812;7.738;2022-08-21T15:08:37;3.20;;;1.97;;
3845;SDS011;1938;50.812;7.738;2022-08-21T15:11:03;2.87;;;1.50;;
3845;SDS011;1938;50.812;7.738;2022-08-21T15:13:30;8.67;;;1.63;;
3845;SDS011;1938;50.812;7.738;2022-08-21T15:15:57;5.37;;;1.80;;
3845;SDS011;1938;50.812;7.738;2022-08-21T15:18:24;2.73;;;1.33;;
3845;SDS011;1938;50.812;7.738;2022-08-21T15:20:51;3.33;;;1.40;;
3845;SDS011;1938;50.812;7.738;2022-08-21T15:23:17;4.27;;;1.43;;
3845;SDS011;1938;50.812;7.738;2022-08-21T15:25:44;3.90;;;1.80;;
3845;SDS011;1938;50.812;7.738;2022-08-21T15:28:11;5.57;;;1.77;;
3845;SDS011;1938;50.812;7.738;2022-08-21T15:30:38;5.07;;;1.80;;
3845;SDS011;1938;50.812;7.738;2022-08-21T15:33:05;2.47;;;1.30;;
3845;SDS011;1938;50.812;7.738;2022-08-21T15:35:31;4.00;;;1.70;;
3845;SDS011;1938;50.812;7.738;2022-08-21T15:37:57;3.20;;;2.03;;
3845;SDS011;1938;50.812;7.738;2022-08-21T15:40:23;2.53;;;1.40;;
3845;SDS011;1938;50.812;7.738;2022-08-21T15:42:50;3.60;;;1.80;;
3845;SDS011;1938;50.812;7.738;2022-08-21T15:45:20;2.30;;;1.47;;
3845;SDS011;1938;50.812;7.738;2022-08-21T15:47:46;2.10;;;1.40;;
3845;SDS011;1938;50.812;7.738;2022-08-21T15:50:14;4.13;;;1.70;;
3845;SDS011;1938;50.812;7.738;2022-08-21T15:52:40;4.00;;;1.80;;
3845;SDS011;1938;50.812;7.738;2022-08-21T15:55:05;4.67;;;1.87;;
3845;SDS011;1938;50.812;7.738;2022-08-21T15:57:31;3.77;;;1.93;;
3845;SDS011;1938;50.812;7.738;2022-08-21T16:00:00;5.77;;;2.10;;
3845;SDS011;1938;50.812;7.738;2022-08-21T16:02:35;6.97;;;2.50;;
3845;SDS011;1938;50.812;7.738;2022-08-21T16:05:01;3.33;;;2.03;;
3845;SDS011;1938;50.812;7.738;2022-08-21T16:07:27;5.80;;;2.00;;
3845;SDS011;1938;50.812;7.738;2022-08-21T16:09:53;3.00;;;1.50;;
3845;SDS011;1938;50.812;7.738;2022-08-21T16:12:20;3.30;;;1.63;;
3845;SDS011;1938;50.812;7.738;2022-08-21T16:14:48;1.80;;;1.30;;
3845;SDS011;1938;50.812;7.738;2022-08-21T16:17:17;4.30;;;1.30;;
3845;SDS011;1938;50.812;7.738;2022-08-21T16:19:42;2.60;;;1.50;;
3845;SDS011;1938;50.812;7.738;2022-08-21T16:22:08;4.90;;;1.90;;
3845;SDS011;1938;50.812;7.738;2022-08-21T16:24:33;2.93;;;1.93;;
3845;SDS011;1938;50.812;7.738;2022-08-21T16:27:00;3.63;;;1.40;;
3845;SDS011;1938;50.812;7.738;2022-08-21T16:29:27;4.47;;;1.90;;
3845;SDS011;1938;50.812;7.738;2022-08-21T16:31:57;2.47;;;1.30;;
3845;SDS011;1938;50.812;7.738;2022-08-21T16:34:22;5.70;;;1.63;;
3845;SDS011;1938;50.812;7.738;2022-08-21T16:36:48;3.67;;;1.83;;
3845;SDS011;1938;50.812;7.738;2022-08-21T16:39:14;4.37;;;1.60;;
3845;SDS011;1938;50.812;7.738;2022-08-21T16:41:40;4.83;;;1.50;;
3845;SDS011;1938;50.812;7.738;2022-08-21T16:44:05;8.80;;;1.60;;
3845;SDS011;1938;50.812;7.738;2022-08-21T16:46:34;5.63;;;1.63;;
3845;SDS011;1938;50.812;7.738;2022-08-21T16:49:02;2.20;;;1.60;;
3845;SDS011;1938;50.812;7.738;2022-08-21T16:51:28;7.87;;;1.93;;
3845;SDS011;1938;50.812;7.738;2022-08-21T16:53:55;5.80;;;1.77;;
3845;SDS011;1938;50.812;7.738;2022-08-21T16:56:21;5.40;;;1.80;;
3845;SDS011;1938;50.812;7.738;2022-08-21T16:58:47;8.20;;;2.30;;
3845;SDS011;1938;50.812;7.738;2022-08-21T17:01:15;10.20;;;2.73;;
3845;SDS011;1938;50.812;7.738;2022-08-21T17:03:44;4.03;;;1.63;;
3845;SDS011;1938;50.812;7.738;2022-08-21T17:06:13;5.90;;;1.77;;
3845;SDS011;1938;50.812;7.738;2022-08-21T17:08:39;4.77;;;1.50;;